Bookmark and Share
Track history (hours):
 

Majesty of the Seas (Bahamas)

Last reported at 2014-Apr-19 00:17 UTC. Time now 2014-Apr-19 02:08 UTC.
Position N 26°02' W 079°36'.

Length 268 m; draft 7.8 m.

Type: Passenger vessel. MMSI: 311734000.

NotesDate/timePositionNaut miles runAvg speedWind from/ knotsBaromVisibWave heightAir tempDewpointWater temp
2014-Apr-19 00:17N 26°02' W 079°36'810.8
2014-Apr-18 23:33N 25°57' W 079°44'1110.7
2014-Apr-18 22:33N 25°52' W 079°54'10 9.9
2014-Apr-18 21:33N 25°47' W 080°04'6 3.2
2014-Apr-18 19:32N 25°47' W 080°11'0 0.0
2014-Apr-18 16:23N 25°47' W 080°11'0 0.0
2014-Apr-18 15:32N 25°47' W 080°11'0 0.0
2014-Apr-18 11:20N 25°47' W 080°11'0 0.4
2014-Apr-18 10:31N 25°47' W 080°11'6 6.1
2014-Apr-18 09:33N 25°47' W 080°05'9 9.4
2014-Apr-18 08:33N 25°41' W 079°56'1414.5
2014-Apr-18 07:33N 25°27' W 079°52'10 0.4
2014-Apr-17 04:06N 25°35' W 079°44'2415.3
2014-Apr-17 02:33N 25°52' W 079°26'72 1.6
2014-Apr-15 06:00N 25°54' W 078°06'8611.5 130 / 131014.1 24.021.1
2014-Apr-14 22:34N 25°56' W 079°41'1615.6
2014-Apr-14 21:34N 25°50' W 079°57'1111.3
2014-Apr-14 20:34N 25°46' W 080°09'2 2.0
2014-Apr-14 19:33N 25°47' W 080°11'0 0.0
2014-Apr-14 18:33N 25°47' W 080°11'0 0.0
2014-Apr-14 17:33N 25°47' W 080°11'0 0.0
2014-Apr-14 16:33N 25°47' W 080°11'0 0.0
2014-Apr-14 15:33N 25°47' W 080°11'0 0.0
2014-Apr-14 14:33N 25°47' W 080°11'0 0.0
2014-Apr-14 11:33N 25°47' W 080°11'0 0.0
2014-Apr-14 09:30N 25°47' W 080°11'7 7.0
2014-Apr-14 08:34N 25°46' W 080°03'1211.9
2014-Apr-14 07:33N 25°51' W 079°51'1414.3
2014-Apr-14 06:33N 25°57' W 079°37'1514.6
2014-Apr-14 05:33N 26°04' W 079°22'10518.8
2014-Apr-14 00:00N 25°36' W 077°30'6 0.2 070 / 201015.510.8 25.021.422.7
2014-Apr-13 00:00N 25°42' W 077°30'114 4.9
2014-Apr-12 00:33N 26°03' W 079°35'915.3
2014-Apr-12 00:00N 25°54' W 079°36'818.8 110 / 211020.010.8 1.524.0 23.5
2014-Apr-11 23:33N 25°57' W 079°45'1110.6
2014-Apr-11 22:33N 25°51' W 079°55'10 9.7
2014-Apr-11 21:33N 25°47' W 080°04'6 5.9
2014-Apr-11 20:31N 25°47' W 080°11'0 0.0
2014-Apr-11 19:31N 25°47' W 080°11'0 0.0
2014-Apr-11 18:31N 25°47' W 080°11'0 0.0
2014-Apr-11 17:31N 25°47' W 080°11'0 0.0
2014-Apr-11 16:31N 25°47' W 080°11'0 0.0
2014-Apr-11 15:31N 25°47' W 080°11'0 0.0
2014-Apr-11 14:31N 25°47' W 080°11'0 0.0
2014-Apr-11 13:31N 25°47' W 080°11'0 0.0
2014-Apr-11 12:28N 25°47' W 080°11'0 0.0
2014-Apr-11 11:31N 25°47' W 080°11'0 0.2
2014-Apr-11 10:23N 25°47' W 080°11'6 7.7
2014-Apr-11 09:33N 25°46' W 080°04'1212.0
2014-Apr-11 08:33N 25°39' W 079°53'21 0.6
2014-Apr-09 20:32N 25°47' W 079°31'1111.2
2014-Apr-09 19:33N 25°55' W 079°23'  

Dump ship's entire track history

sailing weather and tide predictions

Majesty of the Seas — C6FZ8 — position and weather